Time;durP1;ratioP1;P1;durP2;ratioP2;P2;SDS_P1;SDS_P2;PMS_P1;PMS_P2;Temp;Humidity;BMP_temperature;BMP_pressure;BME280_temperature;BME280_humidity;BME280_pressure;Samples;Min_cycle;Max_cycle;Signal;HPM_P1;HPM_P2
2021/10/28 00:13:51;;;;;;;60.88;38.60;;;9.40;83.50;;;7.75;92.77;96565.56;4936877;29;20029;-69
2021/10/28 00:16:26;;;;;;;60.42;37.20;;;9.40;83.40;;;7.70;92.97;96554.75;4906284;29;20063;-69
2021/10/28 00:19:00;;;;;;;49.15;36.75;;;9.40;83.50;;;7.70;93.14;96562.59;4922791;29;20028;-69
2021/10/28 00:21:29;;;;;;;47.60;37.97;;;9.30;83.70;;;7.72;92.57;96552.78;4922501;28;20059;-69
2021/10/28 00:23:59;;;;;;;62.58;38.33;;;9.40;83.60;;;7.69;92.46;96553.06;4903101;29;20419;-69
2021/10/28 00:26:25;;;;;;;61.80;39.67;;;9.40;83.50;;;7.68;93.12;96551.44;4917034;28;20094;-69
2021/10/28 00:28:57;;;;;;;72.65;39.90;;;9.40;83.60;;;7.70;93.16;96559.97;4947193;28;20043;-68
2021/10/28 00:31:29;;;;;;;63.08;39.63;;;9.40;83.40;;;7.68;92.99;96554.88;4936567;28;20032;-70
2021/10/28 00:33:55;;;;;;;67.60;39.05;;;9.30;83.60;;;7.70;93.03;96564.41;4933443;28;20034;-69
2021/10/28 00:36:21;;;;;;;63.17;39.22;;;9.40;83.70;;;7.65;92.90;96567.47;4937154;28;20042;-68
2021/10/28 00:38:48;;;;;;;85.22;41.13;;;9.30;83.70;;;7.63;92.97;96564.19;4937080;28;20043;-69
2021/10/28 00:41:15;;;;;;;56.60;40.92;;;9.30;83.70;;;7.63;93.05;96569.44;4905225;28;20130;-69
2021/10/28 00:43:48;;;;;;;54.03;39.60;;;9.30;83.80;;;7.63;93.22;96565.00;4920841;29;20042;-69
2021/10/28 00:46:17;;;;;;;61.53;40.55;;;9.30;83.70;;;7.61;93.07;96561.72;4906265;29;20078;-69
2021/10/28 00:48:45;;;;;;;61.13;40.30;;;9.30;83.60;;;7.61;93.65;96563.53;4914798;28;20036;-69
2021/10/28 00:51:12;;;;;;;49.80;40.03;;;9.30;83.70;;;7.59;93.52;96568.13;4928041;28;20030;-69
2021/10/28 00:53:38;;;;;;;49.22;39.85;;;9.30;83.70;;;7.58;93.10;96566.47;4946074;28;20026;-69
2021/10/28 00:56:05;;;;;;;55.22;41.08;;;9.30;83.70;;;7.58;93.44;96569.09;4911294;29;20103;-69
2021/10/28 00:58:31;;;;;;;49.28;41.47;;;9.30;83.70;;;7.60;93.34;96575.00;4932905;28;20130;-69
2021/10/28 01:01:01;;;;;;;54.67;41.60;;;9.30;83.80;;;7.60;93.69;96559.28;4928992;28;20032;-69
2021/10/28 01:03:27;;;;;;;70.90;42.60;;;9.30;83.80;;;7.60;93.56;96556.66;4932095;28;20044;-69
2021/10/28 01:05:53;;;;;;;58.30;43.40;;;9.30;83.80;;;7.60;93.53;96554.03;4934392;28;20039;-69
2021/10/28 01:08:19;;;;;;;56.33;43.33;;;9.30;83.90;;;7.60;93.48;96551.44;4920071;29;20567;-70
2021/10/28 01:10:49;;;;;;;85.72;44.95;;;9.30;84.00;;;7.60;93.85;96551.44;4918136;29;20142;-69
2021/10/28 01:13:16;;;;;;;69.50;44.57;;;9.30;84.00;;;7.57;93.73;96549.94;4929577;28;20035;-69
2021/10/28 01:15:42;;;;;;;60.40;45.20;;;9.30;84.10;;;7.57;93.72;96547.34;4917076;29;20326;-69
2021/10/28 01:18:09;;;;;;;59.72;42.72;;;9.30;84.10;;;7.59;93.69;96552.41;4931167;28;20039;-69
2021/10/28 01:20:38;;;;;;;59.85;45.85;;;9.30;84.10;;;7.59;93.45;96547.16;4964656;28;20054;-69
2021/10/28 01:23:05;;;;;;;60.80;44.92;;;9.30;84.10;;;7.56;94.23;96544.88;4925377;28;20527;-70
2021/10/28 01:25:31;;;;;;;117.93;44.13;;;9.30;84.10;;;7.58;94.27;96545.53;4904664;29;20043;-69
2021/10/28 01:27:56;;;;;;;59.13;43.63;;;9.30;84.30;;;7.57;94.05;96543.91;4915853;29;20459;-70
2021/10/28 01:30:22;;;;;;;59.30;43.67;;;9.30;84.00;;;7.57;93.99;96543.91;4948441;28;20147;-70
2021/10/28 01:32:48;;;;;;;57.63;44.33;;;9.20;83.80;;;7.57;94.12;96543.91;4946371;28;20044;-69
2021/10/28 01:35:13;;;;;;;108.25;46.33;;;9.30;83.90;;;7.55;93.81;96545.84;4900838;28;20062;-70
2021/10/28 01:37:44;;;;;;;80.80;45.90;;;9.10;83.90;;;7.52;93.83;96546.19;4912461;29;20163;-69
2021/10/28 01:40:10;;;;;;;77.20;43.90;;;9.20;83.90;;;7.49;94.23;96544.69;4932295;28;20036;-69
2021/10/28 01:42:48;;;;;;;65.30;44.55;;;9.10;83.90;;;7.47;93.92;96533.56;4917830;28;20842;-69
2021/10/28 01:45:13;;;;;;;90.72;43.65;;;9.10;83.90;;;7.40;93.70;96536.97;4931801;28;20107;-69
2021/10/28 01:47:40;;;;;;;83.75;39.97;;;9.00;83.60;;;7.32;93.31;96535.16;4938590;28;20051;-70
2021/10/28 01:50:08;;;;;;;72.93;40.85;;;8.90;83.70;;;7.25;93.87;96537.56;4921058;28;20114;-70
2021/10/28 01:52:37;;;;;;;101.72;42.85;;;8.90;83.90;;;7.20;93.96;96531.97;4922196;29;20043;-70
2021/10/28 01:55:09;;;;;;;127.43;39.90;;;8.80;84.00;;;7.16;94.18;96533.28;4933000;28;20036;-70
2021/10/28 01:57:35;;;;;;;155.90;43.10;;;8.70;84.10;;;7.10;94.10;96531.28;4948883;28;20039;-69
2021/10/28 02:00:02;;;;;;;62.88;40.78;;;8.70;83.90;;;7.09;93.88;96528.81;4943777;29;20046;-69
2021/10/28 02:02:28;;;;;;;73.47;42.67;;;8.70;84.00;;;7.06;93.63;96524.75;4941388;28;20107;-70
2021/10/28 02:04:54;;;;;;;56.55;39.88;;;8.70;84.00;;;7.10;93.94;96531.28;4921384;28;20035;-69
2021/10/28 02:07:20;;;;;;;61.03;39.85;;;8.80;84.10;;;7.07;93.84;96534.22;4930025;29;20066;-69
2021/10/28 02:09:45;;;;;;;51.97;39.17;;;8.70;84.00;;;7.07;93.99;96531.59;4911757;29;20143;-69
2021/10/28 02:12:11;;;;;;;51.33;40.25;;;8.80;83.80;;;7.09;93.79;96534.88;4950756;28;20114;-69
2021/10/28 02:14:37;;;;;;;80.28;39.33;;;8.80;83.90;;;7.09;94.04;96534.88;4934032;28;20110;-69
2021/10/28 02:17:03;;;;;;;52.63;38.85;;;8.80;83.70;;;7.07;93.93;96526.38;4934176;28;20125;-69
2021/10/28 02:19:28;;;;;;;85.60;39.40;;;8.80;83.80;;;7.05;93.17;96523.91;4934585;28;20034;-69
2021/10/28 02:21:55;;;;;;;85.47;39.20;;;8.80;83.60;;;7.05;93.70;96533.56;4922781;28;20403;-69
2021/10/28 02:24:21;;;;;;;146.27;40.78;;;8.70;83.50;;;6.98;93.46;96532.53;4931177;28;20066;-69
2021/10/28 02:26:46;;;;;;;78.95;53.47;;;8.60;83.70;;;6.96;93.40;96537.91;4917544;29;20114;-69
2021/10/28 02:29:12;;;;;;;91.70;70.15;;;8.60;83.90;;;6.97;94.17;96546.56;4917498;28;20553;-68
2021/10/28 02:31:43;;;;;;;72.82;46.35;;;8.60;84.20;;;6.98;93.86;96553.44;4917554;29;20031;-68
2021/10/28 02:34:09;;;;;;;83.22;41.72;;;8.70;83.90;;;6.95;93.90;96541.50;4920419;29;20031;-68
2021/10/28 02:36:35;;;;;;;91.60;40.05;;;8.70;84.00;;;6.94;94.07;96539.88;4903183;29;20046;-68
2021/10/28 02:39:01;;;;;;;69.57;40.60;;;8.60;84.10;;;6.89;94.66;96538.69;4918221;28;20410;-69
2021/10/28 02:41:27;;;;;;;74.03;52.00;;;8.60;84.20;;;6.88;93.84;96531.81;4902245;28;20198;-69
2021/10/28 02:43:52;;;;;;;105.55;51.33;;;8.60;84.10;;;6.87;93.89;96545.88;4915640;28;20134;-68
2021/10/28 02:46:18;;;;;;;61.17;47.13;;;8.60;83.80;;;6.85;94.11;96542.59;4941255;28;20027;-66
2021/10/28 02:48:44;;;;;;;80.45;40.88;;;8.60;83.70;;;6.83;93.55;96544.56;4933745;28;20134;-69
2021/10/28 02:51:10;;;;;;;51.45;37.85;;;8.50;83.70;;;6.81;93.61;96546.50;4902050;28;20450;-66
2021/10/28 02:53:35;;;;;;;57.38;36.83;;;8.50;83.70;;;6.79;93.58;96538.81;4897617;29;20464;-67
2021/10/28 02:56:01;;;;;;;54.97;35.17;;;8.50;83.70;;;6.82;93.72;96553.38;4915914;29;20094;-69
2021/10/28 02:58:27;;;;;;;60.40;36.70;;;8.60;83.50;;;6.82;93.42;96553.38;4917195;29;20114;-68
2021/10/28 03:00:53;;;;;;;67.10;41.95;;;8.50;83.60;;;6.79;93.35;96548.44;4930765;28;20038;-69
2021/10/28 03:03:18;;;;;;;70.82;34.58;;;8.50;83.50;;;6.76;92.85;96547.75;4936966;28;20088;-69
2021/10/28 03:05:44;;;;;;;43.83;35.65;;;8.30;82.90;;;6.71;92.59;96550.03;4919890;28;20463;-68
2021/10/28 03:08:10;;;;;;;77.53;34.72;;;8.30;83.40;;;6.70;92.87;96545.78;4922828;28;20114;-69
2021/10/28 03:10:36;;;;;;;83.43;34.40;;;8.40;83.10;;;6.68;92.41;96542.50;4899245;29;20508;-68
2021/10/28 03:13:01;;;;;;;60.00;36.13;;;8.30;82.90;;;6.66;92.55;96554.91;4902021;28;20058;-68
2021/10/28 03:15:32;;;;;;;55.50;34.15;;;8.30;83.00;;;6.64;92.64;96545.56;4947152;28;20117;-69
2021/10/28 03:19:03;;;;;;;144.85;36.72;;;8.20;83.30;;;6.58;92.10;96551.41;4917417;29;20050;-68
2021/10/28 03:26:24;;;;;;;55.47;36.95;;;8.10;83.90;;;6.50;92.63;96559.19;4936508;28;20082;-68
2021/10/28 03:28:50;;;;;;;64.03;38.20;;;8.10;83.90;;;6.46;92.69;96561.28;4940822;28;20119;-69
2021/10/28 03:31:16;;;;;;;75.63;38.95;;;8.10;84.10;;;6.43;92.84;96558.97;4930071;28;20092;-68
2021/10/28 03:33:46;;;;;;;112.93;39.10;;;8.10;84.30;;;6.43;93.61;96554.56;4916232;28;20488;-68
2021/10/28 03:36:17;;;;;;;145.32;39.33;;;8.10;84.40;;;6.39;93.90;96552.41;4949977;28;20035;-69
2021/10/28 03:38:55;;;;;;;163.98;41.90;;;8.00;84.60;;;6.33;93.39;96551.22;4918790;29;20039;-68
2021/10/28 04:03:59;;;;;;;129.93;39.22;;;7.60;86.20;;;6.10;94.95;96569.13;4922793;28;20118;-67
2021/10/28 04:29:55;;;;;;;75.35;38.13;;;8.00;85.90;;;6.25;96.70;96566.00;4939271;28;20037;-67
2021/10/28 04:32:21;;;;;;;126.25;43.95;;;8.00;86.10;;;6.22;96.48;96574.16;4921511;29;20113;-68
2021/10/28 04:34:47;;;;;;;79.65;45.65;;;7.90;86.40;;;6.23;97.05;96567.97;4921436;28;20039;-66
2021/10/28 04:37:13;;;;;;;112.85;46.85;;;7.90;86.50;;;6.23;96.69;96567.97;4920682;28;20073;-66
2021/10/28 04:39:39;;;;;;;104.95;39.92;;;7.90;86.20;;;6.23;96.90;96565.34;4917429;29;20508;-66
2021/10/28 04:42:05;;;;;;;77.10;40.45;;;7.90;86.40;;;6.24;97.55;96561.75;4949681;28;20130;-66
2021/10/28 04:44:30;;;;;;;138.18;36.42;;;7.90;86.10;;;6.24;97.39;96565.19;4949619;28;20115;-66
2021/10/28 04:46:56;;;;;;;48.30;35.88;;;7.90;85.50;;;6.18;96.32;96547.53;4937379;28;20066;-66
2021/10/28 04:49:22;;;;;;;39.80;34.08;;;7.80;85.90;;;6.22;97.21;96555.88;4935671;28;20146;-66
2021/10/28 04:51:50;;;;;;;69.75;32.42;;;8.00;85.40;;;6.21;95.97;96551.63;4939749;28;20230;-66
2021/10/28 04:54:16;;;;;;;100.63;32.47;;;7.90;85.10;;;6.15;96.19;96553.03;4935102;28;20035;-65
2021/10/28 04:56:41;;;;;;;53.53;35.75;;;7.70;85.40;;;6.13;96.14;96547.16;4920343;28;20043;-65
2021/10/28 04:59:07;;;;;;;47.70;33.00;;;7.80;85.60;;;6.12;96.62;96554.16;4927910;28;20114;-66
2021/10/28 05:01:34;;;;;;;49.67;37.50;;;7.90;85.50;;;6.12;96.80;96546.34;4933394;28;20111;-66
2021/10/28 05:03:59;;;;;;;62.17;48.95;;;7.90;85.30;;;6.17;96.58;96548.50;4932580;28;20044;-65
2021/10/28 05:06:25;;;;;;;85.88;35.58;;;8.10;85.70;;;6.23;96.95;96552.28;4933098;29;20055;-66
2021/10/28 05:08:51;;;;;;;78.68;34.88;;;8.00;85.10;;;6.23;96.87;96544.44;4947954;28;20055;-66
2021/10/28 05:11:18;;;;;;;51.38;35.03;;;8.00;84.80;;;6.23;96.36;96547.06;4943431;28;20182;-66
2021/10/28 05:13:44;;;;;;;45.30;33.53;;;8.00;85.40;;;6.23;96.44;96547.06;4917484;29;20062;-66
2021/10/28 05:16:10;;;;;;;58.03;31.50;;;8.00;84.90;;;6.25;95.44;96547.72;4918967;29;20036;-66
2021/10/28 05:18:40;;;;;;;40.42;31.67;;;8.00;84.40;;;6.23;95.96;96552.28;4949925;28;20039;-66
2021/10/28 05:21:09;;;;;;;37.92;29.58;;;7.90;84.60;;;6.23;95.27;96536.59;4949893;28;20427;-66
2021/10/28 05:23:36;;;;;;;37.53;30.92;;;8.10;84.30;;;6.27;95.70;96551.81;4932245;28;20118;-66
2021/10/28 05:26:02;;;;;;;36.38;28.25;;;8.10;84.30;;;6.28;95.25;96544.81;4932789;28;20031;-67
2021/10/28 05:28:28;;;;;;;40.53;31.60;;;8.10;84.10;;;6.26;94.88;96541.53;4948291;28;20154;-66
2021/10/28 05:30:53;;;;;;;40.85;30.05;;;8.10;84.10;;;6.29;95.12;96543.84;4918975;29;20035;-67
2021/10/28 05:33:19;;;;;;;55.00;30.38;;;8.00;84.00;;;6.25;94.89;96539.88;4951749;28;20031;-67
2021/10/28 05:35:45;;;;;;;40.50;30.60;;;7.90;83.90;;;6.22;94.47;96541.00;4936354;29;20043;-66
2021/10/28 05:38:10;;;;;;;39.05;29.95;;;7.80;84.00;;;6.20;94.92;96552.59;4935962;28;20050;-67
2021/10/28 05:40:36;;;;;;;38.10;26.67;;;7.90;84.30;;;6.17;94.01;96555.50;4935993;29;20106;-66
2021/10/28 05:43:02;;;;;;;46.05;31.25;;;7.90;84.10;;;6.17;94.91;96552.91;4954458;28;20102;-66
2021/10/28 05:45:30;;;;;;;47.92;31.73;;;7.80;84.40;;;6.19;94.89;96561.41;4936127;29;20078;-67
2021/10/28 05:47:55;;;;;;;41.33;32.33;;;7.90;84.40;;;6.19;95.34;96561.41;4962349;28;20069;-66
2021/10/28 05:50:23;;;;;;;41.47;31.75;;;8.00;84.50;;;6.21;95.06;96567.28;4986803;28;20486;-67
2021/10/28 05:52:51;;;;;;;40.85;30.63;;;8.00;84.30;;;6.22;95.81;96561.09;4955554;28;20110;-66
2021/10/28 05:55:17;;;;;;;40.17;30.10;;;8.00;84.20;;;6.22;95.54;96561.09;4935671;28;20054;-66
2021/10/28 05:57:42;;;;;;;52.92;33.08;;;8.10;84.10;;;6.27;95.37;96564.06;4935718;28;20451;-66
2021/10/28 06:00:09;;;;;;;53.35;36.80;;;8.10;84.30;;;6.27;95.11;96558.84;4951371;28;20039;-66
2021/10/28 06:02:35;;;;;;;49.63;36.47;;;7.90;84.60;;;6.25;94.81;96550.34;4935566;28;20024;-66
2021/10/28 06:05:02;;;;;;;60.95;34.13;;;8.00;84.90;;;6.27;95.47;96554.44;4935057;28;20062;-66
2021/10/28 06:07:28;;;;;;;55.47;32.38;;;8.00;84.90;;;6.25;95.51;96560.78;4919882;29;20045;-67
2021/10/28 06:09:54;;;;;;;55.30;34.08;;;7.90;84.50;;;6.26;94.96;96567.66;4935218;28;20364;-66
2021/10/28 06:12:20;;;;;;;42.63;31.83;;;7.90;85.10;;;6.26;95.68;96562.44;4951205;28;20051;-66
2021/10/28 06:14:46;;;;;;;40.75;31.58;;;8.00;85.50;;;6.33;95.62;96573.91;4951366;28;20171;-66
2021/10/28 06:17:15;;;;;;;50.92;31.05;;;8.10;85.20;;;6.35;96.35;96564.97;4927011;28;20035;-67
2021/10/28 06:19:40;;;;;;;40.22;32.20;;;8.10;84.80;;;6.33;96.21;96555.63;4933130;28;20024;-66
2021/10/28 06:22:06;;;;;;;39.08;30.30;;;8.10;84.90;;;6.36;95.82;96552.72;4934960;28;20063;-67
2021/10/28 06:24:32;;;;;;;44.03;29.98;;;8.20;84.90;;;6.41;95.69;96559.13;4935335;29;20122;-66
2021/10/28 06:26:58;;;;;;;44.15;31.17;;;8.20;84.40;;;6.41;96.19;96561.75;4918958;28;20063;-66
2021/10/28 06:29:24;;;;;;;43.25;29.88;;;8.20;84.50;;;6.40;94.68;96556.69;4951033;28;20383;-66
2021/10/28 06:31:50;;;;;;;39.60;30.27;;;8.10;84.00;;;6.35;94.65;96558.94;4934799;29;20110;-66
2021/10/28 06:34:20;;;;;;;38.60;29.38;;;7.90;84.40;;;6.33;95.46;96568.69;4935391;28;20035;-66
2021/10/28 06:36:48;;;;;;;38.35;28.58;;;8.00;84.80;;;6.31;95.49;96565.41;4935696;28;20053;-66
2021/10/28 06:39:15;;;;;;;65.32;27.35;;;8.00;84.70;;;6.25;95.23;96558.19;4934479;28;20047;-66
2021/10/28 06:41:41;;;;;;;39.05;27.27;;;7.90;84.30;;;6.22;95.55;96568.94;4916203;29;20071;-67
2021/10/28 06:44:06;;;;;;;36.10;27.23;;;7.80;84.90;;;6.20;94.73;96568.25;4963640;28;20574;-68
2021/10/28 06:46:32;;;;;;;37.53;28.10;;;7.90;85.00;;;6.21;95.45;96564.69;4947761;28;20032;-68
2021/10/28 06:48:58;;;;;;;45.40;27.77;;;7.90;85.10;;;6.20;95.22;96563.84;4962698;28;20654;-66
2021/10/28 06:51:25;;;;;;;35.30;28.10;;;7.80;85.00;;;6.21;95.08;96564.69;4968417;28;20109;-66
2021/10/28 06:54:17;;;;;;;34.35;26.35;;;7.90;84.90;;;6.24;95.45;96572.22;4934551;28;20031;-67
2021/10/28 07:04:39;;;;;;;38.03;28.40;;;7.70;85.00;;;6.16;95.36;96572.16;4934528;28;20031;-66
2021/10/28 07:07:05;;;;;;;38.00;28.33;;;7.90;85.30;;;6.19;96.14;96571.84;4938535;28;20079;-67
2021/10/28 07:09:33;;;;;;;46.88;28.60;;;8.00;85.20;;;6.16;95.93;96564.31;4915706;29;20110;-67
2021/10/28 07:12:09;;;;;;;42.47;29.33;;;8.00;84.70;;;6.24;95.43;96574.81;4931660;28;20023;-66
2021/10/28 07:14:35;;;;;;;39.22;29.13;;;8.00;85.00;;;6.27;96.14;96583.19;4902985;29;20522;-66
2021/10/28 07:22:36;;;;;;;62.45;29.67;;;8.00;84.70;;;6.25;95.50;96568.63;4920426;29;20399;-66
2021/10/28 07:28:12;;;;;;;41.88;29.92;;;8.10;85.00;;;6.35;96.58;96572.81;4935860;28;20038;-66
2021/10/28 07:31:01;;;;;;;42.25;26.55;;;8.20;84.70;;;6.36;95.75;96569.22;4947713;28;20484;-66
2021/10/28 07:56:05;;;;;;;34.42;26.95;;;8.60;83.70;;;6.64;96.34;96556.84;4974401;28;20089;-66
2021/10/28 08:14:24;;;;;;;34.45;27.25;;;9.00;82.40;;;7.03;94.92;96541.56;4944847;28;20035;-67
2021/10/28 08:19:44;;;;;;;41.70;28.17;;;9.10;81.80;;;7.13;94.17;96530.97;4948263;28;20111;-66
2021/10/28 08:29:55;;;;;;;36.40;28.02;;;9.10;81.60;;;7.24;93.54;96524.63;4934276;28;20726;-67
2021/10/28 08:32:21;;;;;;;34.75;27.60;;;9.20;81.40;;;7.29;93.57;96530.22;4926310;28;20036;-67
2021/10/28 08:34:49;;;;;;;36.42;27.70;;;9.30;81.70;;;7.32;93.30;96525.50;4934208;28;20032;-66
2021/10/28 08:37:17;;;;;;;35.85;27.30;;;9.20;81.40;;;7.33;93.10;96521.09;4918084;28;20039;-67
2021/10/28 08:39:44;;;;;;;31.52;25.15;;;9.30;81.70;;;7.39;93.20;96530.91;4902805;29;20094;-67
2021/10/28 08:42:12;;;;;;;32.97;25.77;;;9.20;81.40;;;7.41;92.88;96530.75;4943406;28;20542;-66
2021/10/28 08:44:41;;;;;;;32.80;26.15;;;9.20;81.30;;;7.38;92.52;96519.63;4921633;28;20404;-66
2021/10/28 08:47:08;;;;;;;31.65;25.33;;;9.10;81.30;;;7.33;92.62;96515.84;4921026;28;20546;-67
2021/10/28 08:49:39;;;;;;;31.75;25.60;;;9.10;81.40;;;7.34;92.22;96513.06;4930217;28;20030;-67
2021/10/28 08:52:27;;;;;;;31.23;26.27;;;9.10;81.50;;;7.37;92.46;96502.28;4929660;29;20066;-67
2021/10/28 09:29:33;;;;;;;28.33;23.60;;;10.10;77.80;;;8.14;89.45;96494.19;4951604;28;20035;-66
2021/10/28 09:32:24;;;;;;;27.10;22.10;;;10.20;78.50;;;8.19;89.42;96498.00;4938906;28;20031;-65
2021/10/28 09:43:50;;;;;;;26.63;22.35;;;10.40;77.60;;;8.41;88.53;96491.28;4938456;28;20050;-67
2021/10/28 09:52:26;;;;;;;28.75;23.70;;;10.60;77.00;;;8.63;87.71;96488.97;4952684;28;20034;-67
2021/10/28 09:55:04;;;;;;;30.08;22.70;;;10.60;76.40;;;8.63;87.62;96484.53;4957685;28;20041;-67
2021/10/28 10:00:03;;;;;;;27.48;22.83;;;10.70;76.50;;;8.73;87.61;96489.59;4970775;28;20031;-67
2021/10/28 10:02:34;;;;;;;28.98;23.00;;;10.80;76.30;;;8.79;87.48;96483.66;4951215;28;20035;-67
2021/10/28 10:05:03;;;;;;;27.73;23.83;;;10.90;76.40;;;8.83;88.09;96485.81;4935954;28;20035;-67
2021/10/28 10:07:29;;;;;;;32.03;26.00;;;10.90;76.60;;;8.78;87.66;96482.03;4945242;28;20083;-67
2021/10/28 10:09:54;;;;;;;30.92;26.08;;;10.60;76.90;;;8.78;86.83;96484.66;4932041;28;20023;-67
2021/10/28 10:12:20;;;;;;;31.35;26.05;;;10.70;76.60;;;8.84;87.07;96481.38;4932555;28;20036;-66
2021/10/28 10:14:46;;;;;;;28.63;24.77;;;10.90;76.70;;;8.89;86.95;96481.69;4948364;28;20040;-67
2021/10/28 10:17:12;;;;;;;31.58;26.13;;;10.90;76.50;;;8.90;86.99;96483.31;4961589;28;20451;-67
2021/10/28 10:19:42;;;;;;;31.20;25.90;;;10.90;76.80;;;8.91;87.59;96471.84;4951234;28;20031;-67
2021/10/28 10:25:07;;;;;;;34.30;27.13;;;10.90;76.70;;;8.97;87.09;96468.53;4951518;28;20402;-67
2021/10/28 10:28:28;;;;;;;30.00;26.15;;;11.00;76.10;;;9.04;87.76;96472.09;4932435;28;20082;-66
2021/10/28 11:03:22;;;;;;;26.02;21.05;;;13.70;64.90;;;10.86;81.55;96435.41;4918410;29;20058;-67
2021/10/28 11:30:09;;;;;;;16.85;13.88;;;34.20;21.60;;;20.70;62.03;96395.16;4936549;28;20549;-67
2021/10/28 12:15:20;;;;;;;14.65;13.00;;;41.40;15.20;;;30.12;33.57;96309.94;4953703;28;20387;-67
2021/10/28 12:17:48;;;;;;;13.82;12.52;;;41.40;15.30;;;30.03;39.11;96302.78;4922933;28;20396;-66
2021/10/28 12:23:36;;;;;;;15.98;14.38;;;40.80;15.30;;;30.25;36.82;96302.00;4949564;28;20032;-67
2021/10/28 12:51:39;;;;;;;16.35;14.73;;;41.70;15.30;;;31.74;27.84;96267.72;4972000;28;20136;-68
2021/10/28 12:55:06;;;;;;;15.38;13.88;;;41.60;15.30;;;31.98;26.85;96262.59;4934131;28;20047;-68
2021/10/28 13:03:40;;;;;;;15.90;13.82;;;41.70;15.60;;;32.23;26.76;96253.56;4929929;29;20035;-68
2021/10/28 13:57:26;;;;;;;14.73;13.05;;;36.70;19.30;;;30.08;28.59;96232.16;4938838;28;20132;-67
2021/10/28 14:21:45;;;;;;;17.15;14.70;;;29.40;26.90;;;27.20;30.93;96222.00;4932357;28;20039;-67
2021/10/28 14:32:30;;;;;;;16.75;15.10;;;26.30;31.50;;;24.89;33.26;96239.66;4962085;28;20031;-68
2021/10/28 14:38:05;;;;;;;21.02;15.45;;;24.50;34.90;;;23.41;34.94;96236.38;4932110;28;20043;-68
2021/10/28 15:30:10;;;;;;;24.30;21.15;;;15.30;57.20;;;14.00;54.38;96216.81;4949339;28;20039;-70
2021/10/28 15:38:02;;;;;;;30.35;24.77;;;14.50;59.60;;;13.23;57.03;96228.09;4941836;28;20049;-68
2021/10/28 15:40:37;;;;;;;24.35;21.63;;;14.20;60.60;;;12.97;58.12;96220.91;4947410;28;20118;-69
2021/10/28 15:43:44;;;;;;;25.50;21.13;;;14.00;61.20;;;12.71;58.05;96219.03;4938810;28;20082;-70
2021/10/28 15:54:06;;;;;;;50.15;33.72;;;13.10;64.00;;;11.84;60.76;96211.75;4926194;29;20058;-68
2021/10/28 16:23:16;;;;;;;56.13;46.15;;;11.30;68.70;;;10.05;66.81;96209.19;4936540;28;20037;-70
2021/10/28 16:25:42;;;;;;;41.78;36.53;;;11.10;69.20;;;9.91;68.07;96210.00;4978255;28;20036;-70
2021/10/28 16:28:08;;;;;;;36.13;31.63;;;11.10;69.50;;;9.76;68.39;96212.66;4918378;29;20091;-71
2021/10/28 16:30:34;;;;;;;32.97;28.90;;;10.90;69.80;;;9.61;69.10;96216.25;4935374;29;20028;-71
2021/10/28 16:33:00;;;;;;;71.25;51.25;;;10.80;70.30;;;9.42;68.66;96214.97;4945372;28;20424;-70
2021/10/28 16:35:25;;;;;;;60.55;46.50;;;10.60;70.80;;;9.30;69.37;96213.78;4965355;28;20063;-70
2021/10/28 16:37:52;;;;;;;36.95;31.15;;;10.50;71.00;;;9.17;69.29;96217.81;4944850;28;20054;-69
2021/10/28 16:40:18;;;;;;;28.38;24.13;;;10.30;71.50;;;9.04;70.48;96220.19;4940965;28;20038;-69
2021/10/28 16:42:43;;;;;;;25.80;21.88;;;10.20;72.20;;;8.94;70.94;96224.88;4920912;29;20122;-70
2021/10/28 16:45:09;;;;;;;58.17;24.20;;;10.20;73.00;;;8.85;71.42;96225.94;4920305;28;20044;-69
2021/10/28 16:47:36;;;;;;;27.65;23.48;;;10.10;73.80;;;8.73;72.97;96217.66;4955664;28;20027;-70
2021/10/28 16:50:03;;;;;;;32.30;21.52;;;10.00;74.60;;;8.63;72.83;96216.25;4924801;29;20027;-70
2021/10/28 16:52:29;;;;;;;23.90;21.33;;;9.90;75.00;;;8.60;73.78;96222.69;4942542;28;20046;-70
2021/10/28 16:54:55;;;;;;;34.28;22.55;;;9.90;75.60;;;8.51;74.74;96224.50;4940613;28;20058;-70
2021/10/28 16:57:22;;;;;;;32.75;22.38;;;9.80;76.10;;;8.48;75.58;96224.03;4957132;28;20117;-69
2021/10/28 16:59:48;;;;;;;33.08;23.13;;;9.80;76.30;;;8.47;75.13;96227.66;4946825;28;20054;-70
2021/10/28 17:02:13;;;;;;;36.38;22.15;;;9.80;76.50;;;8.41;75.78;96234.41;4920694;29;20066;-70
2021/10/28 17:04:39;;;;;;;102.43;28.65;;;9.80;76.70;;;8.38;76.46;96241.81;4936658;28;20043;-70
2021/10/28 17:07:05;;;;;;;46.97;27.85;;;9.70;77.00;;;8.34;76.60;96236.06;4927127;28;20448;-70
2021/10/28 17:09:31;;;;;;;70.97;31.23;;;9.70;77.40;;;8.34;76.89;96243.94;4933312;29;20039;-71
2021/10/28 17:11:57;;;;;;;40.45;26.48;;;9.70;77.80;;;8.30;77.68;96245.22;4948482;28;20047;-71
2021/10/28 17:14:22;;;;;;;56.75;24.60;;;9.70;77.80;;;8.26;77.71;96241.31;4933786;28;20039;-70
2021/10/28 17:16:48;;;;;;;41.70;24.15;;;9.60;78.10;;;8.31;77.83;96241.63;4927761;28;20080;-71
2021/10/28 17:19:16;;;;;;;25.73;23.02;;;9.60;78.00;;;8.30;78.34;96240.81;4945461;28;20383;-70
2021/10/28 17:21:43;;;;;;;30.13;23.70;;;9.70;78.20;;;8.30;78.07;96251.28;4931138;28;20028;-70
2021/10/28 17:24:20;;;;;;;46.50;36.50;;;9.60;78.10;;;8.31;78.19;96244.25;4936359;29;20039;-70
2021/10/28 17:26:46;;;;;;;48.35;32.28;;;9.70;78.10;;;8.30;79.13;96258.34;4934173;28;20035;-72
2021/10/28 17:29:11;;;;;;;36.00;27.08;;;9.70;78.20;;;8.23;79.45;96252.16;4935114;28;20082;-71
2021/10/28 17:31:37;;;;;;;28.30;24.00;;;9.60;78.50;;;8.23;79.43;96249.53;4920384;29;20396;-70
2021/10/28 17:34:04;;;;;;;36.70;22.52;;;9.60;78.50;;;8.22;79.76;96245.28;4928410;29;20492;-69
2021/10/28 17:36:30;;;;;;;27.20;23.27;;;9.60;78.60;;;8.20;79.70;96253.31;4936100;28;20110;-73
2021/10/28 17:38:56;;;;;;;29.83;23.05;;;9.60;78.60;;;8.17;79.99;96243.19;4934376;28;20522;-70
2021/10/28 17:41:22;;;;;;;36.20;21.95;;;9.60;78.60;;;8.23;79.63;96250.34;4935486;28;20035;-73
2021/10/28 17:43:50;;;;;;;31.50;23.45;;;9.70;78.40;;;8.19;80.41;96248.25;4949008;28;20488;-70
2021/10/28 17:46:16;;;;;;;44.90;23.52;;;9.60;78.70;;;8.13;80.77;96252.34;4933445;28;20052;-69
2021/10/28 17:48:41;;;;;;;71.03;24.80;;;9.50;78.50;;;8.07;80.23;96246.97;4979753;28;20373;-68
2021/10/28 17:51:07;;;;;;;28.77;23.73;;;9.40;78.90;;;8.07;80.93;96244.34;4937528;28;20488;-67
2021/10/28 17:53:33;;;;;;;24.83;22.17;;;9.50;79.00;;;8.09;80.59;96252.84;4905111;29;20107;-66
2021/10/28 17:55:59;;;;;;;53.05;22.50;;;9.50;79.10;;;8.08;81.43;96248.59;4951871;28;20038;-68
2021/10/28 17:58:25;;;;;;;47.03;23.35;;;9.50;79.10;;;8.07;81.29;96246.97;4951070;28;20043;-66
2021/10/28 18:00:51;;;;;;;35.40;23.27;;;9.50;79.10;;;8.06;81.44;96247.94;4945580;28;20028;-69
2021/10/28 18:03:20;;;;;;;39.17;24.33;;;9.50;78.70;;;8.02;81.28;96251.91;4944984;28;20020;-68
2021/10/28 18:05:46;;;;;;;58.00;23.88;;;9.50;78.80;;;7.95;81.71;96249.97;4935377;28;20043;-69
2021/10/28 18:08:13;;;;;;;75.45;23.48;;;9.40;79.20;;;7.94;81.76;96243.09;4949955;28;20590;-70
2021/10/28 18:10:39;;;;;;;33.90;22.38;;;9.30;79.20;;;7.90;81.83;96244.41;4953489;28;20031;-68
2021/10/28 18:13:04;;;;;;;60.30;24.38;;;9.30;79.20;;;7.86;82.08;96250.97;4960988;28;20487;-65
2021/10/28 18:15:31;;;;;;;41.85;24.27;;;9.30;79.40;;;7.82;82.43;96249.66;4951340;28;20395;-67
2021/10/28 18:18:01;;;;;;;27.42;24.38;;;9.20;79.60;;;7.82;83.32;96249.66;4934715;29;20156;-68
2021/10/28 18:20:27;;;;;;;43.92;23.23;;;9.30;79.80;;;7.81;82.86;96240.19;4943946;28;20036;-67
2021/10/28 18:22:53;;;;;;;29.80;24.70;;;9.30;79.60;;;7.82;82.54;96247.03;4915776;28;20553;-66
2021/10/28 18:25:21;;;;;;;29.02;24.27;;;9.30;79.60;;;7.75;83.13;96227.75;4945264;28;20031;-69
2021/10/28 18:27:47;;;;;;;31.20;23.23;;;9.20;79.80;;;7.77;82.71;96232.84;4935114;28;20049;-68
2021/10/28 18:30:16;;;;;;;39.92;23.42;;;9.20;79.60;;;7.72;82.87;96246.44;4950177;28;20023;-69
2021/10/28 18:32:43;;;;;;;87.63;25.13;;;9.20;79.70;;;7.66;82.99;96234.00;4945344;28;20566;-69
2021/10/28 18:35:09;;;;;;;33.55;24.48;;;9.10;79.80;;;7.63;82.74;96239.56;4922900;28;20515;-68